Time;durP1;ratioP1;P1;durP2;ratioP2;P2;SDS_P1;SDS_P2;PMS_P1;PMS_P2;Temp;Humidity;BMP_temperature;BMP_pressure;BME280_temperature;BME280_humidity;BME280_pressure;Samples;Min_cycle;Max_cycle;Signal;HPM_P1;HPM_P2
2022/05/28 00:00:53;;;;;;;26.70;25.17;;;;;;;21.67;42.53;102092.84;5047431;28;20041;-82
2022/05/28 00:03:19;;;;;;;27.60;25.80;;;;;;;21.66;42.47;102093.97;5014732;28;20042;-82
2022/05/28 00:05:45;;;;;;;26.42;24.73;;;;;;;21.67;42.40;102087.34;5026550;28;20037;-83
2022/05/28 00:08:10;;;;;;;28.40;26.48;;;;;;;21.65;42.15;102081.34;5026215;28;20040;-81
2022/05/28 00:10:36;;;;;;;26.55;24.92;;;;;;;21.65;42.34;102089.59;5032251;28;20026;-81
2022/05/28 00:13:02;;;;;;;27.35;25.48;;;;;;;21.64;42.34;102083.25;5031239;28;20110;-81
2022/05/28 00:15:28;;;;;;;28.80;27.02;;;;;;;21.64;42.28;102087.94;5029679;28;20033;-83
2022/05/28 00:17:53;;;;;;;28.20;26.60;;;;;;;21.63;42.00;102078.06;5030936;28;20041;-81
2022/05/28 00:20:19;;;;;;;28.00;26.55;;;;;;;21.63;41.98;102080.81;5029293;28;20061;-82
2022/05/28 00:22:45;;;;;;;27.60;25.90;;;;;;;21.62;42.09;102071.72;5044072;28;20043;-82
2022/05/28 00:25:14;;;;;;;29.30;27.48;;;;;;;21.61;42.03;102073.63;5028647;28;20033;-82
2022/05/28 00:27:40;;;;;;;27.27;25.58;;;;;;;21.62;42.25;102074.47;5029656;28;20057;-82
2022/05/28 00:30:09;;;;;;;26.50;24.52;;;;;;;21.61;42.46;102070.88;5030575;28;20808;-82
2022/05/28 00:32:34;;;;;;;29.05;27.17;;;;;;;21.60;42.18;102072.00;5042537;28;20038;-82
2022/05/28 00:35:00;;;;;;;26.73;25.23;;;;;;;21.59;42.35;102073.09;5015506;28;20056;-82
2022/05/28 00:37:25;;;;;;;27.33;25.73;;;;;;;21.59;42.58;102069.53;5045636;28;20034;-82
2022/05/28 00:39:51;;;;;;;27.48;25.50;;;;;;;21.59;42.49;102070.34;5024868;28;20059;-82
2022/05/28 00:42:16;;;;;;;27.50;25.60;;;;;;;21.60;42.10;102071.19;5026240;28;20034;-82
2022/05/28 00:44:41;;;;;;;26.77;25.02;;;;;;;21.59;42.22;102067.59;5011374;28;20033;-82
2022/05/28 00:47:08;;;;;;;27.58;26.08;;;;;;;21.60;42.18;102063.75;5016289;28;20029;-86
2022/05/28 00:49:33;;;;;;;27.58;25.63;;;;;;;21.60;42.02;102058.25;5045135;28;20038;-82
2022/05/28 00:52:02;;;;;;;27.65;26.00;;;;;;;21.59;42.60;102061.28;5050139;28;20044;-83
2022/05/28 00:54:33;;;;;;;27.77;25.92;;;;;;;21.58;42.52;102062.41;5031876;28;20033;-82
2022/05/28 00:57:01;;;;;;;27.50;25.90;;;;;;;21.58;42.35;102063.22;5025129;28;20034;-83
2022/05/28 00:59:27;;;;;;;26.90;25.13;;;;;;;21.59;42.15;102062.09;5036793;28;20034;-83
2022/05/28 01:01:59;;;;;;;26.90;25.40;;;;;;;21.56;42.59;102053.59;5044905;28;20048;-83
2022/05/28 01:04:48;;;;;;;26.83;25.20;;;;;;;21.57;42.34;102061.59;5033831;28;20120;-83
2022/05/28 01:07:49;;;;;;;25.85;24.35;;;;;;;21.59;42.17;102051.09;5032081;28;20029;-82
2022/05/28 01:10:34;;;;;;;25.17;23.88;;;;;;;21.56;42.36;102045.38;5041707;28;20037;-82
2022/05/28 01:13:25;;;;;;;26.02;24.40;;;;;;;21.57;42.49;102052.50;5033523;28;20034;-83
2022/05/28 01:16:00;;;;;;;26.33;24.90;;;;;;;21.54;42.58;102055.81;5026833;28;20478;-82
2022/05/28 01:18:28;;;;;;;26.92;25.15;;;;;;;21.54;42.21;102050.31;5040463;28;20100;-83
2022/05/28 01:20:59;;;;;;;26.85;25.35;;;;;;;21.53;42.55;102046.75;5013902;28;20045;-83
2022/05/28 01:23:59;;;;;;;27.40;25.73;;;;;;;21.54;42.55;102039.31;5020536;28;20085;-82
2022/05/28 01:26:49;;;;;;;26.75;25.15;;;;;;;21.52;42.27;102036.88;5042411;28;20088;-81
2022/05/28 01:29:16;;;;;;;26.80;25.02;;;;;;;21.53;42.34;102037.69;5021232;28;20046;-82
2022/05/28 01:31:44;;;;;;;26.67;25.23;;;;;;;21.52;42.14;102033.28;5025468;28;20041;-83
2022/05/28 01:34:10;;;;;;;26.92;25.40;;;;;;;21.51;42.50;102037.97;5028966;28;20531;-83
2022/05/28 01:36:37;;;;;;;27.92;26.23;;;;;;;21.51;42.21;102037.97;5040677;28;20044;-83
2022/05/28 01:39:04;;;;;;;26.00;24.40;;;;;;;21.52;42.29;102034.13;5020160;28;20057;-83
2022/05/28 01:41:31;;;;;;;28.13;26.52;;;;;;;21.53;42.26;102035.75;5029497;28;20487;-83
2022/05/28 01:43:58;;;;;;;26.70;25.10;;;;;;;21.53;42.32;102037.69;5033578;28;20505;-83
2022/05/28 01:46:28;;;;;;;29.10;27.50;;;;;;;21.52;42.61;102033.28;5022033;28;20437;-82
2022/05/28 01:48:55;;;;;;;27.52;25.92;;;;;;;21.53;42.08;102029.44;5015033;28;20041;-83
2022/05/28 01:51:23;;;;;;;26.67;25.08;;;;;;;21.51;42.04;102026.97;5033205;28;20028;-83
2022/05/28 01:54:08;;;;;;;27.73;26.13;;;;;;;21.53;42.28;102034.94;5024813;28;20034;-83
2022/05/28 01:56:43;;;;;;;26.95;25.20;;;;;;;21.50;42.26;102030.84;5034363;28;20041;-82
2022/05/28 01:59:29;;;;;;;28.40;26.77;;;;;;;21.49;42.33;102026.44;5044400;28;20029;-82
2022/05/28 02:01:57;;;;;;;26.83;25.17;;;;;;;21.50;42.46;102030.84;5019965;28;20049;-82
2022/05/28 02:04:23;;;;;;;26.07;24.67;;;;;;;21.48;42.19;102027.53;5016727;28;20029;-83
2022/05/28 02:06:49;;;;;;;26.75;25.33;;;;;;;21.47;42.28;102023.16;5026276;28;20366;-83
2022/05/28 02:09:25;;;;;;;26.95;25.55;;;;;;;21.48;42.62;102027.53;5030396;28;20042;-82
2022/05/28 02:12:09;;;;;;;27.52;25.63;;;;;;;21.49;42.14;102034.66;5015619;28;20042;-83
2022/05/28 02:14:37;;;;;;;28.58;26.90;;;;;;;21.49;42.33;102034.66;5017969;28;20142;-84
2022/05/28 02:17:17;;;;;;;27.33;25.73;;;;;;;21.48;42.61;102038.53;5044239;28;20056;-83
2022/05/28 02:19:58;;;;;;;27.23;25.40;;;;;;;21.49;42.24;102031.09;5021447;28;20064;-85
2022/05/28 02:22:31;;;;;;;26.27;24.75;;;;;;;21.49;42.17;102029.16;5020791;28;20535;-83
2022/05/28 02:25:05;;;;;;;27.75;26.08;;;;;;;21.49;42.25;102025.59;5034427;28;20039;-83
2022/05/28 02:27:31;;;;;;;26.60;25.00;;;;;;;21.49;42.49;102020.94;5049432;28;20041;-84
2022/05/28 02:30:00;;;;;;;28.42;26.75;;;;;;;21.49;42.44;102020.13;5033232;28;20068;-86
2022/05/28 02:32:26;;;;;;;27.70;26.00;;;;;;;21.46;42.56;102023.44;5049828;28;20542;-86
2022/05/28 02:34:51;;;;;;;27.75;26.23;;;;;;;21.44;42.51;102017.41;5043450;28;20029;-86
2022/05/28 02:37:21;;;;;;;27.98;26.42;;;;;;;21.45;42.70;102025.38;5012719;28;20037;-86
2022/05/28 02:39:47;;;;;;;29.13;27.52;;;;;;;21.45;42.30;102024.56;5023620;28;20032;-86
2022/05/28 02:42:12;;;;;;;27.50;26.10;;;;;;;21.45;42.34;102024.56;5022585;28;20037;-85
2022/05/28 02:44:38;;;;;;;28.60;26.80;;;;;;;21.44;42.58;102022.91;5012842;28;20072;-86
2022/05/28 02:47:04;;;;;;;26.80;25.25;;;;;;;21.45;42.53;102025.38;5008436;28;20057;-85
2022/05/28 02:49:30;;;;;;;28.52;26.88;;;;;;;21.44;42.59;102020.97;5030440;28;20034;-85
2022/05/28 02:51:56;;;;;;;26.85;25.25;;;;;;;21.44;42.34;102015.47;5022762;28;20064;-85
2022/05/28 02:54:22;;;;;;;27.50;25.80;;;;;;;21.44;42.40;102012.72;5049326;28;20116;-85
2022/05/28 02:56:48;;;;;;;28.65;26.95;;;;;;;21.44;42.36;102009.16;5029641;28;20473;-85
2022/05/28 02:59:15;;;;;;;26.70;25.15;;;;;;;21.43;42.70;102015.78;5031954;28;20188;-85
2022/05/28 03:01:40;;;;;;;28.67;26.90;;;;;;;21.42;42.67;102012.19;5024535;28;20611;-85
2022/05/28 03:04:07;;;;;;;27.05;25.63;;;;;;;21.43;42.56;102011.09;5026234;28;20069;-86
2022/05/28 03:06:35;;;;;;;27.75;26.13;;;;;;;21.44;42.43;102015.47;5053112;28;20044;-84
2022/05/28 03:09:01;;;;;;;26.50;24.95;;;;;;;21.44;42.39;102012.72;5025199;28;20037;-85
2022/05/28 03:11:26;;;;;;;27.30;25.80;;;;;;;21.43;42.84;102008.34;5053535;28;20042;-85
2022/05/28 03:13:52;;;;;;;25.75;24.15;;;;;;;21.41;42.51;102002.28;5030693;28;20067;-85
2022/05/28 03:16:17;;;;;;;27.77;25.98;;;;;;;21.40;42.77;102006.16;5041591;28;20076;-86
2022/05/28 03:18:43;;;;;;;27.63;26.02;;;;;;;21.41;42.60;102013.28;5024816;28;20049;-85
2022/05/28 03:21:08;;;;;;;27.83;26.13;;;;;;;21.42;42.66;102014.09;5026515;28;20064;-86
2022/05/28 03:23:34;;;;;;;26.27;24.88;;;;;;;21.43;42.80;102010.28;5041630;28;20413;-84
2022/05/28 03:26:15;;;;;;;27.48;25.98;;;;;;;21.42;42.98;102009.44;5023029;28;20041;-85
2022/05/28 03:28:40;;;;;;;28.23;26.70;;;;;;;21.40;42.84;102008.91;5011612;28;20061;-85
2022/05/28 03:31:05;;;;;;;27.27;25.85;;;;;;;21.42;42.76;102011.34;5017425;28;20077;-86
2022/05/28 03:33:31;;;;;;;27.58;26.08;;;;;;;21.40;42.57;102017.16;5051170;28;20025;-86
2022/05/28 03:35:56;;;;;;;28.20;26.58;;;;;;;21.39;42.63;102012.75;5011575;28;20398;-85
2022/05/28 03:38:21;;;;;;;27.55;25.90;;;;;;;21.39;42.84;102019.09;5022164;28;20033;-85
2022/05/28 03:40:47;;;;;;;27.15;25.75;;;;;;;21.38;42.91;102006.44;5050922;28;20500;-85
2022/05/28 03:43:12;;;;;;;25.45;23.92;;;;;;;21.38;42.84;102009.19;5042832;28;20048;-86
2022/05/28 03:45:38;;;;;;;26.70;25.15;;;;;;;21.41;42.63;102012.47;5025840;28;20134;-85
2022/05/28 03:48:06;;;;;;;25.70;24.30;;;;;;;21.38;42.58;102016.59;5030987;28;20052;-86
2022/05/28 03:50:31;;;;;;;25.98;24.50;;;;;;;21.36;42.67;102016.84;5031948;28;20029;-86
2022/05/28 03:52:57;;;;;;;26.20;24.60;;;;;;;21.36;43.05;102019.59;5033116;28;20275;-85
2022/05/28 03:55:22;;;;;;;26.15;24.63;;;;;;;21.38;43.04;102019.34;5005011;28;20052;-85
2022/05/28 03:57:47;;;;;;;27.67;25.67;;;;;;;21.39;42.77;102021.84;5028873;28;20041;-86
2022/05/28 04:00:14;;;;;;;27.77;26.10;;;;;;;21.39;42.85;102032.00;5030889;28;20029;-85
2022/05/28 04:02:39;;;;;;;27.33;25.65;;;;;;;21.38;42.88;102033.06;5026735;28;20048;-84
2022/05/28 04:05:05;;;;;;;29.17;27.50;;;;;;;21.37;42.82;102031.44;5019454;28;20038;-85
2022/05/28 04:07:30;;;;;;;28.73;27.08;;;;;;;21.38;42.92;102024.84;5023339;28;20489;-85
2022/05/28 04:09:56;;;;;;;29.27;27.60;;;;;;;21.39;42.62;102034.75;5013008;28;20037;-86
2022/05/28 04:12:21;;;;;;;25.55;24.27;;;;;;;21.38;42.59;102028.44;5036519;28;20115;-87
2022/05/28 04:14:48;;;;;;;27.20;25.67;;;;;;;21.40;42.64;102036.41;5020847;28;20033;-86
2022/05/28 04:17:13;;;;;;;25.92;24.42;;;;;;;21.38;42.72;102033.06;5029497;28;20539;-87
2022/05/28 04:19:39;;;;;;;25.75;24.23;;;;;;;21.39;42.65;102032.84;5027068;28;20038;-87
2022/05/28 04:22:04;;;;;;;26.92;25.52;;;;;;;21.41;42.96;102040.78;5041352;28;20459;-87
2022/05/28 04:24:30;;;;;;;26.80;25.17;;;;;;;21.41;42.72;102035.28;5046458;28;20045;-87
2022/05/28 04:26:55;;;;;;;26.83;25.35;;;;;;;21.41;42.61;102038.03;4999843;28;20050;-86
2022/05/28 04:29:21;;;;;;;25.40;23.90;;;;;;;21.41;42.75;102040.78;5010820;28;20056;-87
2022/05/28 04:31:46;;;;;;;27.70;26.10;;;;;;;21.41;42.93;102042.72;5042094;28;20044;-86
2022/05/28 04:34:11;;;;;;;26.08;24.48;;;;;;;21.43;42.59;102043.25;5014291;28;20495;-87
2022/05/28 04:36:37;;;;;;;26.77;25.23;;;;;;;21.42;42.40;102039.69;5013109;28;20388;-87
2022/05/28 04:39:03;;;;;;;26.80;25.20;;;;;;;21.41;42.46;102037.22;5029613;28;20053;-86
2022/05/28 04:41:28;;;;;;;27.60;26.02;;;;;;;21.44;42.95;102042.94;5027971;28;20386;-87
2022/05/28 04:43:53;;;;;;;28.48;26.75;;;;;;;21.43;42.53;102043.25;5030568;28;20029;-88
2022/05/28 04:46:19;;;;;;;25.80;24.45;;;;;;;21.43;42.96;102046.00;5030474;28;20060;-87
2022/05/28 04:48:44;;;;;;;26.55;25.00;;;;;;;21.43;42.70;102044.06;5033305;28;20087;-86
2022/05/28 04:51:09;;;;;;;26.40;24.70;;;;;;;21.47;42.57;102044.31;5017899;28;20038;-87
2022/05/28 04:53:35;;;;;;;26.42;24.80;;;;;;;21.46;42.59;102053.69;4994175;28;20061;-86
2022/05/28 04:56:00;;;;;;;26.10;24.60;;;;;;;21.47;42.62;102049.81;5024989;28;20286;-87
2022/05/28 04:58:27;;;;;;;25.55;23.95;;;;;;;21.45;42.87;102046.53;5029811;28;20030;-86
2022/05/28 05:00:53;;;;;;;28.45;26.80;;;;;;;21.46;42.96;102049.00;5029374;28;20033;-86
2022/05/28 05:03:19;;;;;;;26.52;25.10;;;;;;;21.45;42.89;102055.59;5035969;28;20032;-86
2022/05/28 05:05:45;;;;;;;26.27;24.73;;;;;;;21.47;42.69;102056.16;5031500;28;20044;-86
2022/05/28 05:08:10;;;;;;;27.15;25.63;;;;;;;21.48;42.79;102052.28;5012086;28;20037;-87
2022/05/28 05:10:36;;;;;;;25.77;24.27;;;;;;;21.48;43.02;102052.28;5033766;28;20067;-87
2022/05/28 05:13:02;;;;;;;27.48;25.73;;;;;;;21.49;42.57;102053.91;5034501;28;20056;-85
2022/05/28 05:15:28;;;;;;;25.17;23.63;;;;;;;21.49;42.92;102059.41;5046397;28;20126;-85
2022/05/28 05:17:53;;;;;;;27.35;25.75;;;;;;;21.52;42.59;102067.13;5018354;28;20124;-86
2022/05/28 05:20:19;;;;;;;27.20;25.55;;;;;;;21.52;42.84;102063.53;5029630;28;20053;-88
2022/05/28 05:22:44;;;;;;;26.98;25.48;;;;;;;21.52;42.72;102063.53;5025441;28;20123;-84
2022/05/28 05:25:12;;;;;;;26.38;24.98;;;;;;;21.52;42.68;102071.78;5045780;28;20473;-87
2022/05/28 05:27:38;;;;;;;27.17;25.77;;;;;;;21.51;42.53;102061.88;5029424;28;20073;-86
2022/05/28 05:30:05;;;;;;;27.50;25.85;;;;;;;21.52;42.74;102069.03;5032978;28;20084;-86
2022/05/28 05:32:30;;;;;;;25.80;24.48;;;;;;;21.51;42.46;102070.94;5016458;28;20099;-87
2022/05/28 05:34:55;;;;;;;27.00;25.55;;;;;;;21.52;42.43;102072.63;5034242;28;20041;-87
2022/05/28 05:37:21;;;;;;;26.15;24.52;;;;;;;21.53;42.86;102068.75;5038960;28;20565;-86
2022/05/28 05:39:47;;;;;;;26.17;24.77;;;;;;;21.53;42.79;102071.50;5032996;28;20037;-85
2022/05/28 05:42:12;;;;;;;26.33;24.83;;;;;;;21.55;42.95;102068.47;5016589;28;20084;-86
2022/05/28 05:44:38;;;;;;;28.02;26.52;;;;;;;21.54;42.65;102077.81;5026714;28;20041;-85
2022/05/28 05:47:04;;;;;;;26.92;25.42;;;;;;;21.51;42.56;102073.69;5032437;28;20117;-87
2022/05/28 05:49:30;;;;;;;26.05;24.58;;;;;;;21.53;42.78;102077.00;5013969;28;20042;-86
2022/05/28 05:51:55;;;;;;;27.38;25.77;;;;;;;21.54;42.71;102084.13;5029784;28;20501;-86
2022/05/28 05:54:24;;;;;;;25.70;24.20;;;;;;;21.55;42.72;102074.78;5016530;28;20477;-86
2022/05/28 05:56:49;;;;;;;26.23;24.75;;;;;;;21.53;42.66;102081.69;5035896;28;20037;-86
2022/05/28 05:59:15;;;;;;;26.52;25.05;;;;;;;21.53;42.86;102079.75;5040709;28;20087;-86
2022/05/28 06:01:40;;;;;;;26.65;25.15;;;;;;;21.54;42.89;102077.81;5021376;28;20038;-86
2022/05/28 06:04:06;;;;;;;27.02;25.30;;;;;;;21.54;42.76;102089.63;5026508;28;20033;-87
2022/05/28 06:06:31;;;;;;;26.35;24.98;;;;;;;21.54;42.74;102088.81;5032887;28;20430;-86
2022/05/28 06:08:57;;;;;;;28.88;27.17;;;;;;;21.54;42.66;102084.13;5032690;28;20040;-85
2022/05/28 06:11:22;;;;;;;27.42;25.85;;;;;;;21.51;42.40;102087.44;5009792;28;20044;-87
2022/05/28 06:13:48;;;;;;;26.90;25.50;;;;;;;21.50;42.82;102094.06;5016869;28;20036;-86
2022/05/28 06:16:13;;;;;;;26.15;24.65;;;;;;;21.50;42.72;102094.06;5032657;28;20044;-86
2022/05/28 06:18:38;;;;;;;26.73;25.13;;;;;;;21.50;42.76;102096.81;5032320;28;20370;-87
2022/05/28 06:21:04;;;;;;;27.90;26.38;;;;;;;21.53;42.48;102093.50;5035553;28;20045;-86
2022/05/28 06:23:30;;;;;;;26.10;24.50;;;;;;;21.52;42.64;102102.84;5024317;28;20076;-87
2022/05/28 06:25:56;;;;;;;26.60;25.20;;;;;;;21.53;42.77;102100.94;5045502;28;20050;-86
2022/05/28 06:28:22;;;;;;;26.23;24.83;;;;;;;21.54;42.42;102110.81;5025623;28;20050;-86
2022/05/28 06:30:50;;;;;;;26.45;24.95;;;;;;;21.49;42.79;102110.84;5040470;28;20107;-87
2022/05/28 06:33:16;;;;;;;;;;;;;;;21.52;42.91;102113.00;5049472;28;20041;-87
2022/05/28 06:35:42;;;;;;;25.65;24.08;;;;;;;21.50;42.87;102113.31;5022428;28;19923;-87
2022/05/28 06:38:07;;;;;;;25.88;24.30;;;;;;;21.47;42.87;102102.88;5034278;28;20041;-87
2022/05/28 06:40:34;;;;;;;26.90;25.40;;;;;;;21.47;42.93;102110.28;5029144;28;20398;-87
2022/05/28 06:43:00;;;;;;;27.98;26.38;;;;;;;21.49;42.53;102108.09;5031038;28;20116;-87
2022/05/28 06:45:26;;;;;;;25.92;24.58;;;;;;;21.48;42.99;102117.44;5030351;28;20754;-86
2022/05/28 06:47:51;;;;;;;26.40;24.90;;;;;;;21.46;42.89;102116.91;5019814;28;20026;-86
2022/05/28 06:53:03;;;;;;;26.45;24.95;;;;;;;21.49;42.80;102116.31;5024083;28;20104;-87
2022/05/28 06:55:29;;;;;;;26.10;24.38;;;;;;;21.50;42.72;102118.00;4980392;28;20034;-86
2022/05/28 06:57:55;;;;;;;26.27;24.77;;;;;;;21.50;42.88;102116.06;5004576;28;20490;-85
2022/05/28 07:00:21;;;;;;;25.75;24.30;;;;;;;21.48;42.48;102112.75;5031710;28;20050;-87
2022/05/28 07:02:46;;;;;;;24.52;23.17;;;;;;;21.50;42.91;102112.50;5041798;28;20029;-87
2022/05/28 07:05:14;;;;;;;25.83;24.33;;;;;;;21.50;42.68;102113.31;5046728;28;20037;-87
2022/05/28 07:07:41;;;;;;;26.65;25.13;;;;;;;21.50;42.73;102113.31;5031323;28;20021;-88
2022/05/28 07:10:07;;;;;;;27.33;25.83;;;;;;;21.50;42.94;102112.50;5032259;28;20029;-86
2022/05/28 07:12:33;;;;;;;26.58;25.13;;;;;;;21.48;42.93;102121.00;5031954;28;20033;-89
2022/05/28 07:14:58;;;;;;;27.50;26.05;;;;;;;21.50;43.03;102121.56;5027844;28;20033;-86
2022/05/28 07:17:24;;;;;;;26.13;24.75;;;;;;;21.52;42.81;102122.09;5028315;28;20032;-88
2022/05/28 07:19:50;;;;;;;26.70;25.30;;;;;;;21.52;42.64;102116.59;5019062;28;20072;-86
2022/05/28 07:22:16;;;;;;;25.60;24.30;;;;;;;21.49;42.72;102116.31;5033541;28;20149;-87
2022/05/28 07:24:42;;;;;;;26.60;25.20;;;;;;;21.51;42.73;102123.19;5028981;28;20477;-87
2022/05/28 07:27:07;;;;;;;27.98;26.48;;;;;;;21.48;42.99;102123.75;5027728;28;20103;-87
2022/05/28 07:29:33;;;;;;;24.98;23.70;;;;;;;21.49;43.15;102130.06;5043837;28;20124;-87
2022/05/28 07:31:58;;;;;;;27.13;25.63;;;;;;;21.48;43.00;102126.50;5046695;28;20034;-87
2022/05/28 07:34:24;;;;;;;25.50;24.00;;;;;;;21.51;42.82;102127.88;5045577;23;20140;-88
2022/05/28 07:36:49;;;;;;;24.05;22.75;;;;;;;21.46;43.20;102131.47;5049169;28;20378;-87
2022/05/28 07:39:15;;;;;;;26.70;25.10;;;;;;;21.46;43.49;102119.66;5051209;28;20984;-85
2022/05/28 07:41:41;;;;;;;26.00;24.40;;;;;;;21.46;43.12;102119.66;5031711;28;20037;-86
2022/05/28 07:44:06;;;;;;;27.10;25.42;;;;;;;21.47;43.16;102121.28;5028646;28;20044;-86
2022/05/28 07:46:33;;;;;;;26.10;24.15;;;;;;;21.45;43.48;102113.34;5032691;28;20447;-85
2022/05/28 07:49:01;;;;;;;25.27;23.98;;;;;;;21.47;43.38;102124.88;5045678;28;20045;-85
2022/05/28 07:51:27;;;;;;;26.08;24.70;;;;;;;21.46;43.70;102125.97;5038712;28;20025;-87
2022/05/28 07:53:53;;;;;;;27.27;25.88;;;;;;;21.49;43.14;102124.56;5039389;28;20031;-85
2022/05/28 07:56:18;;;;;;;25.17;23.77;;;;;;;21.49;43.45;102127.31;5046493;28;20067;-87
2022/05/28 07:58:45;;;;;;;25.90;24.25;;;;;;;21.49;43.12;102124.56;5047858;28;20147;-86
2022/05/28 08:01:22;;;;;;;26.58;25.08;;;;;;;21.48;43.40;102122.94;5056688;28;20111;-87
2022/05/28 08:03:48;;;;;;;25.58;24.17;;;;;;;21.50;43.26;102127.06;5033055;28;20484;-87
2022/05/28 08:06:13;;;;;;;27.65;26.05;;;;;;;21.48;43.50;102126.50;5041634;28;20033;-87
2022/05/28 08:08:39;;;;;;;26.98;25.52;;;;;;;21.50;43.65;102124.31;5044346;28;20120;-86
2022/05/28 08:11:04;;;;;;;26.83;25.33;;;;;;;21.51;43.59;102127.88;5030930;28;20128;-87
2022/05/28 08:13:30;;;;;;;26.20;24.70;;;;;;;21.49;43.59;102114.41;5051406;28;20504;-87
2022/05/28 08:15:55;;;;;;;26.70;25.20;;;;;;;21.51;43.45;102111.38;5056627;28;20041;-86
2022/05/28 08:18:23;;;;;;;26.58;25.08;;;;;;;21.50;43.29;102105.06;5047733;28;20036;-88
2022/05/28 08:23:33;;;;;;;27.60;26.10;;;;;;;21.50;43.47;102104.25;5050799;28;20442;-87
2022/05/28 08:25:59;;;;;;;25.35;23.95;;;;;;;21.48;43.67;102112.75;5032834;28;20038;-86
2022/05/28 08:28:24;;;;;;;26.42;24.90;;;;;;;21.49;43.56;102108.91;5033491;28;20033;-90
2022/05/28 08:30:50;;;;;;;25.75;24.35;;;;;;;21.52;43.72;102116.59;5031822;28;20045;-94
2022/05/28 08:33:17;;;;;;;25.48;24.10;;;;;;;21.53;43.69;102100.94;5033824;28;20037;-87
2022/05/28 08:35:44;;;;;;;23.90;22.40;;;;;;;21.49;43.76;102108.91;5049540;28;20049;-88
2022/05/28 08:38:15;;;;;;;25.92;24.63;;;;;;;21.51;43.46;102109.44;5036975;28;20041;-89
2022/05/28 08:40:52;;;;;;;25.58;24.08;;;;;;;21.52;43.74;102107.50;5031504;28;20091;-86
2022/05/28 08:43:19;;;;;;;25.38;23.95;;;;;;;21.51;43.75;102103.94;5038546;28;20025;-88
2022/05/28 08:45:47;;;;;;;25.27;24.00;;;;;;;21.53;43.58;102112.75;5034788;28;20029;-88
2022/05/28 08:48:17;;;;;;;25.83;24.23;;;;;;;21.55;43.55;102104.22;5051513;28;20029;-88
2022/05/28 08:50:58;;;;;;;25.45;24.13;;;;;;;21.51;43.94;102106.69;5032242;28;20115;-88
2022/05/28 08:53:29;;;;;;;25.70;24.15;;;;;;;21.50;43.64;102105.06;5044894;28;20036;-95
2022/05/28 08:55:56;;;;;;;26.15;24.85;;;;;;;21.54;43.80;102108.88;5050814;28;20029;-87
2022/05/28 08:58:26;;;;;;;25.40;24.10;;;;;;;21.55;43.75;102113.28;5028117;28;20095;-89
2022/05/28 09:01:06;;;;;;;26.55;25.23;;;;;;;21.56;44.01;102117.66;5048581;28;20033;-87
2022/05/28 09:03:34;;;;;;;27.83;26.20;;;;;;;21.53;44.34;102109.16;5049887;28;20395;-86
2022/05/28 09:06:30;;;;;;;35.25;31.60;;;;;;;21.52;45.96;102108.34;5050132;28;20032;-93
2022/05/28 09:08:56;;;;;;;29.60;27.00;;;;;;;21.55;46.56;102112.47;5043553;28;20029;-84
2022/05/28 09:11:31;;;;;;;36.63;26.52;;;;;;;21.58;46.54;102112.72;5031117;28;20025;-92
2022/05/28 09:14:13;;;;;;;33.15;30.40;;;;;;;21.65;46.73;102114.34;5039543;28;20481;-85
2022/05/28 09:16:41;;;;;;;35.38;31.65;;;;;;;21.69;46.59;102104.41;5046583;28;20490;-82
2022/05/28 09:19:14;;;;;;;32.78;29.95;;;;;;;21.69;46.88;102107.16;5054648;28;20385;-84
2022/05/28 09:21:40;;;;;;;32.63;29.70;;;;;;;21.68;47.07;102117.31;5050302;28;20800;-82
2022/05/28 09:24:20;;;;;;;33.67;31.13;;;;;;;21.70;46.24;102117.06;5054631;28;20041;-86
2022/05/28 09:27:33;;;;;;;32.05;29.48;;;;;;;21.69;46.08;102121.72;5049440;28;20021;-82
2022/05/28 09:30:05;;;;;;;30.67;28.70;;;;;;;21.66;45.68;102118.72;5038760;28;20102;-79
2022/05/28 09:32:48;;;;;;;31.90;29.30;;;;;;;21.69;45.35;102115.41;5049091;28;20037;-79
2022/05/28 09:35:41;;;;;;;31.80;29.83;;;;;;;21.62;42.49;102115.72;5046023;28;20049;-84
2022/05/28 09:38:19;;;;;;;30.75;28.70;;;;;;;21.56;40.07;102103.09;5046105;28;20039;-85
2022/05/28 09:41:14;;;;;;;30.17;28.27;;;;;;;21.52;40.03;102104.75;5054536;28;20091;-82
2022/05/28 09:44:01;;;;;;;31.23;29.05;;;;;;;21.46;39.55;102117.72;5052718;28;20287;-84
2022/05/28 09:46:27;;;;;;;31.40;29.50;;;;;;;21.48;39.13;102109.19;5051593;28;20025;-84
2022/05/28 09:49:01;;;;;;;29.80;27.95;;;;;;;21.47;39.79;102111.13;5047116;28;20057;-83
2022/05/28 09:51:28;;;;;;;31.45;29.40;;;;;;;21.45;38.82;102116.09;5037081;28;20047;-82
2022/05/28 09:54:18;;;;;;;30.05;28.25;;;;;;;21.44;38.01;102108.94;5034793;28;20038;-82
2022/05/28 09:57:11;;;;;;;29.38;27.50;;;;;;;21.39;38.44;102107.06;5039612;28;20041;-83
2022/05/28 09:59:43;;;;;;;29.42;27.63;;;;;;;21.40;39.02;102099.63;5049914;28;20033;-82
2022/05/28 10:02:22;;;;;;;30.10;28.05;;;;;;;21.34;38.52;102095.19;5052621;28;20037;-84
2022/05/28 10:04:54;;;;;;;29.02;27.15;;;;;;;21.37;37.52;102097.41;5049629;28;20256;-84
2022/05/28 10:07:42;;;;;;;30.60;28.90;;;;;;;21.32;37.57;102105.69;5069189;28;20025;-83
2022/05/28 10:10:29;;;;;;;31.88;29.75;;;;;;;21.27;39.65;102108.44;5052940;28;20035;-81
2022/05/28 10:13:15;;;;;;;30.27;28.57;;;;;;;21.31;38.99;102101.28;5039710;28;20025;-82
2022/05/28 10:15:51;;;;;;;29.85;28.25;;;;;;;21.33;39.34;102101.81;5046188;28;20039;-82
2022/05/28 10:18:20;;;;;;;29.98;28.30;;;;;;;21.30;37.67;102100.47;5053571;28;20087;-81
2022/05/28 10:21:06;;;;;;;29.80;27.85;;;;;;;21.31;37.57;102093.84;5050167;28;20555;-80
2022/05/28 10:23:35;;;;;;;30.13;28.15;;;;;;;21.29;38.25;102100.72;5053599;28;20033;-80
2022/05/28 10:26:01;;;;;;;31.00;29.08;;;;;;;21.30;36.73;102092.22;5042964;28;20436;-80
2022/05/28 10:28:40;;;;;;;29.88;28.17;;;;;;;21.29;36.92;102087.00;5054043;28;20032;-81
2022/05/28 10:31:14;;;;;;;;;;;;;;;21.29;36.80;102095.22;5054419;28;20051;-80
2022/05/28 10:33:43;;;;;;;29.13;27.50;;;;;;;21.29;36.89;102095.22;5051702;28;19913;-81
2022/05/28 10:36:15;;;;;;;29.40;27.67;;;;;;;21.27;36.49;102089.19;5038593;28;20065;-80
2022/05/28 10:38:41;;;;;;;30.77;29.13;;;;;;;21.28;36.57;102083.44;5044207;28;20120;-81
2022/05/28 10:41:20;;;;;;;29.98;28.27;;;;;;;21.18;36.45;102083.47;5039605;28;20133;-81
2022/05/28 10:43:46;;;;;;;29.95;28.45;;;;;;;21.21;36.63;102087.59;5044851;28;20092;-80
2022/05/28 10:46:12;;;;;;;29.67;27.92;;;;;;;21.23;35.61;102088.13;5052302;28;20037;-88
2022/05/28 10:48:47;;;;;;;30.30;28.50;;;;;;;21.21;35.89;102087.59;5045395;28;20030;-80
2022/05/28 10:51:25;;;;;;;30.10;28.20;;;;;;;21.23;35.57;102085.38;5038671;28;20029;-84
2022/05/28 10:53:56;;;;;;;29.60;28.05;;;;;;;21.17;35.05;102084.59;5048193;28;20021;-80
2022/05/28 10:56:24;;;;;;;30.88;28.95;;;;;;;21.12;35.46;102085.44;5048436;28;20036;-81
2022/05/28 10:58:58;;;;;;;31.20;29.48;;;;;;;21.11;35.93;102082.94;5046681;28;20076;-78
2022/05/28 11:01:40;;;;;;;29.88;28.08;;;;;;;21.08;34.98;102087.09;5046027;28;20528;-82
2022/05/28 11:04:33;;;;;;;30.35;28.35;;;;;;;21.13;35.66;102083.50;5053266;28;20035;-79
2022/05/28 11:07:16;;;;;;;31.13;29.05;;;;;;;21.11;35.95;102086.50;5045567;28;20118;-78
2022/05/28 11:10:08;;;;;;;30.77;29.00;;;;;;;21.14;37.47;102085.13;5039132;28;20043;-83
2022/05/28 11:13:01;;;;;;;32.33;30.52;;;;;;;21.15;39.37;102081.28;5053450;28;20035;-80
2022/05/28 11:15:48;;;;;;;31.75;29.92;;;;;;;21.21;39.52;102080.16;5049140;28;20036;-81
2022/05/28 11:18:35;;;;;;;31.08;29.25;;;;;;;21.21;39.71;102082.09;5047670;28;20394;-81
2022/05/28 11:21:07;;;;;;;31.10;28.67;;;;;;;21.24;39.74;102081.50;5040794;28;20032;-82
2022/05/28 11:23:51;;;;;;;31.15;29.38;;;;;;;21.22;40.23;102076.31;5044455;28;20041;-79
2022/05/28 11:26:40;;;;;;;32.72;30.65;;;;;;;21.25;40.23;102078.50;5048938;28;20106;-88